sensor_id;sensor_type;location;lat;lon;timestamp;pressure;altitude;pressure_sealevel;temperature;humidity
63395;BME280;49531;-34.520;150.798;2023-10-13T00:01:55;100718.16;;;22.01;31.08
63395;BME280;49531;-34.520;150.798;2023-10-13T00:04:34;100708.13;;;22.06;31.08
63395;BME280;49531;-34.520;150.798;2023-10-13T00:07:04;100704.88;;;22.09;30.93
63395;BME280;49531;-34.520;150.798;2023-10-13T00:09:35;100709.50;;;22.09;31.03
63395;BME280;49531;-34.520;150.798;2023-10-13T00:12:07;100707.31;;;22.16;31.00
63395;BME280;49531;-34.520;150.798;2023-10-13T00:14:42;100695.91;;;22.19;30.77
63395;BME280;49531;-34.520;150.798;2023-10-13T00:17:12;100685.81;;;22.14;31.44
63395;BME280;49531;-34.520;150.798;2023-10-13T00:19:46;100684.75;;;22.25;30.84
63395;BME280;49531;-34.520;150.798;2023-10-13T00:22:15;100674.41;;;22.33;30.84
63395;BME280;49531;-34.520;150.798;2023-10-13T00:24:44;100671.94;;;22.36;30.92
63395;BME280;49531;-34.520;150.798;2023-10-13T00:27:16;100676.28;;;22.42;30.90
63395;BME280;49531;-34.520;150.798;2023-10-13T00:30:08;100668.38;;;22.46;30.13
63395;BME280;49531;-34.520;150.798;2023-10-13T00:32:45;100659.94;;;22.47;29.76
63395;BME280;49531;-34.520;150.798;2023-10-13T00:35:16;100659.38;;;22.50;29.99
63395;BME280;49531;-34.520;150.798;2023-10-13T00:37:56;100669.19;;;22.56;29.96
63395;BME280;49531;-34.520;150.798;2023-10-13T00:40:24;100673.25;;;22.59;29.81
63395;BME280;49531;-34.520;150.798;2023-10-13T00:43:00;100671.09;;;22.61;29.69
63395;BME280;49531;-34.520;150.798;2023-10-13T00:48:26;100673.25;;;22.74;29.81
63395;BME280;49531;-34.520;150.798;2023-10-13T00:51:06;100663.16;;;22.70;29.63
63395;BME280;49531;-34.520;150.798;2023-10-13T00:53:35;100679.50;;;22.75;29.79
63395;BME280;49531;-34.520;150.798;2023-10-13T00:56:11;100670.22;;;22.81;29.57
63395;BME280;49531;-34.520;150.798;2023-10-13T00:58:54;100668.84;;;22.88;29.67
63395;BME280;49531;-34.520;150.798;2023-10-13T01:01:24;100672.34;;;22.99;29.56
63395;BME280;49531;-34.520;150.798;2023-10-13T01:04:02;100666.91;;;22.99;29.35
63395;BME280;49531;-34.520;150.798;2023-10-13T01:06:31;100670.44;;;23.00;29.41
63395;BME280;49531;-34.520;150.798;2023-10-13T01:09:05;100672.06;;;23.06;29.25
63395;BME280;49531;-34.520;150.798;2023-10-13T01:11:44;100665.25;;;23.08;29.42
63395;BME280;49531;-34.520;150.798;2023-10-13T01:14:14;100657.06;;;23.08;29.49
63395;BME280;49531;-34.520;150.798;2023-10-13T01:16:44;100651.34;;;23.10;29.59
63395;BME280;49531;-34.520;150.798;2023-10-13T01:19:16;100646.72;;;23.10;29.76
63395;BME280;49531;-34.520;150.798;2023-10-13T01:21:51;100648.88;;;23.13;29.87
63395;BME280;49531;-34.520;150.798;2023-10-13T01:24:29;100646.41;;;23.17;29.88
63395;BME280;49531;-34.520;150.798;2023-10-13T01:27:04;100645.81;;;23.20;29.91
63395;BME280;49531;-34.520;150.798;2023-10-13T01:29:44;100644.72;;;23.21;29.96
63395;BME280;49531;-34.520;150.798;2023-10-13T01:32:19;100644.44;;;23.27;29.70
63395;BME280;49531;-34.520;150.798;2023-10-13T01:34:46;100642.78;;;23.32;29.75
63395;BME280;49531;-34.520;150.798;2023-10-13T01:37:15;100656.38;;;23.37;29.74
63395;BME280;49531;-34.520;150.798;2023-10-13T01:39:45;100652.81;;;23.41;29.76
63395;BME280;49531;-34.520;150.798;2023-10-13T01:42:16;100641.91;;;23.41;29.63
63395;BME280;49531;-34.520;150.798;2023-10-13T01:44:48;100636.16;;;23.48;29.21
63395;BME280;49531;-34.520;150.798;2023-10-13T01:47:15;100630.69;;;23.53;29.28
63395;BME280;49531;-34.520;150.798;2023-10-13T01:49:47;100629.25;;;23.60;29.51
63395;BME280;49531;-34.520;150.798;2023-10-13T01:52:16;100627.06;;;23.63;29.00
63395;BME280;49531;-34.520;150.798;2023-10-13T01:54:44;100619.13;;;23.66;28.84
63395;BME280;49531;-34.520;150.798;2023-10-13T01:57:12;100625.13;;;23.68;29.50
63395;BME280;49531;-34.520;150.798;2023-10-13T01:59:49;100624.56;;;23.71;29.48
63395;BME280;49531;-34.520;150.798;2023-10-13T02:02:16;100617.47;;;23.70;29.49
63395;BME280;49531;-34.520;150.798;2023-10-13T02:05:07;100613.69;;;23.66;29.66
63395;BME280;49531;-34.520;150.798;2023-10-13T02:07:34;100602.25;;;23.64;29.69
63395;BME280;49531;-34.520;150.798;2023-10-13T02:10:06;100606.31;;;23.67;29.62
63395;BME280;49531;-34.520;150.798;2023-10-13T02:12:33;100607.94;;;23.68;29.78
63395;BME280;49531;-34.520;150.798;2023-10-13T02:15:04;100602.50;;;23.68;29.65
63395;BME280;49531;-34.520;150.798;2023-10-13T02:17:31;100604.22;;;23.58;29.78
63395;BME280;49531;-34.520;150.798;2023-10-13T02:20:09;100596.78;;;23.64;29.95
63395;BME280;49531;-34.520;150.798;2023-10-13T02:22:42;100604.38;;;23.72;29.48
63395;BME280;49531;-34.520;150.798;2023-10-13T02:25:19;100606.84;;;23.69;29.83
63395;BME280;49531;-34.520;150.798;2023-10-13T02:28:02;100611.19;;;23.70;29.58
63395;BME280;49531;-34.520;150.798;2023-10-13T02:30:44;100604.59;;;23.76;29.48
63395;BME280;49531;-34.520;150.798;2023-10-13T02:33:12;100600.22;;;23.80;30.04
63395;BME280;49531;-34.520;150.798;2023-10-13T02:35:40;100600.22;;;23.80;30.26
63395;BME280;49531;-34.520;150.798;2023-10-13T02:38:20;100599.13;;;23.81;30.42
63395;BME280;49531;-34.520;150.798;2023-10-13T02:41:00;100598.31;;;23.80;30.51
63395;BME280;49531;-34.520;150.798;2023-10-13T02:43:36;100600.22;;;23.80;30.85
63395;BME280;49531;-34.520;150.798;2023-10-13T02:46:04;100599.66;;;23.83;30.79
63395;BME280;49531;-34.520;150.798;2023-10-13T02:48:31;100580.28;;;23.84;30.68
63395;BME280;49531;-34.520;150.798;2023-10-13T02:51:09;100576.97;;;23.87;30.28
63395;BME280;49531;-34.520;150.798;2023-10-13T02:53:44;100575.34;;;23.86;30.69
63395;BME280;49531;-34.520;150.798;2023-10-13T02:56:20;100557.88;;;23.87;30.27
63395;BME280;49531;-34.520;150.798;2023-10-13T02:58:52;100558.69;;;23.88;30.65
63395;BME280;49531;-34.520;150.798;2023-10-13T03:01:20;100551.28;;;23.93;30.43
63395;BME280;49531;-34.520;150.798;2023-10-13T03:03:49;100561.38;;;23.93;30.31
63395;BME280;49531;-34.520;150.798;2023-10-13T03:06:22;100573.09;;;23.93;30.42
63395;BME280;49531;-34.520;150.798;2023-10-13T03:08:52;100582.38;;;23.92;30.52
63395;BME280;49531;-34.520;150.798;2023-10-13T03:11:19;100556.72;;;23.93;30.51
63395;BME280;49531;-34.520;150.798;2023-10-13T03:13:50;100564.91;;;23.93;31.03
63395;BME280;49531;-34.520;150.798;2023-10-13T03:16:19;100571.94;;;24.00;31.18
63395;BME280;49531;-34.520;150.798;2023-10-13T03:18:49;100544.63;;;24.00;31.20
63395;BME280;49531;-34.520;150.798;2023-10-13T03:21:22;100555.50;;;24.05;31.18
63395;BME280;49531;-34.520;150.798;2023-10-13T03:24:03;100561.78;;;24.05;31.24
63395;BME280;49531;-34.520;150.798;2023-10-13T03:26:34;100556.84;;;24.07;31.30
63395;BME280;49531;-34.520;150.798;2023-10-13T03:29:03;100555.19;;;24.11;31.39
63395;BME280;49531;-34.520;150.798;2023-10-13T03:31:34;100547.81;;;24.12;31.35
63395;BME280;49531;-34.520;150.798;2023-10-13T03:34:05;100544.53;;;24.10;31.10
63395;BME280;49531;-34.520;150.798;2023-10-13T03:36:38;100544.31;;;24.06;31.06
63395;BME280;49531;-34.520;150.798;2023-10-13T03:39:24;100553.25;;;24.12;31.11
63395;BME280;49531;-34.520;150.798;2023-10-13T03:41:59;100543.44;;;24.11;31.38
63395;BME280;49531;-34.520;150.798;2023-10-13T03:44:26;100534.16;;;24.12;31.42
63395;BME280;49531;-34.520;150.798;2023-10-13T03:46:57;100527.03;;;24.16;31.64
63395;BME280;49531;-34.520;150.798;2023-10-13T03:49:34;100523.75;;;24.14;31.73
63395;BME280;49531;-34.520;150.798;2023-10-13T03:52:04;100519.94;;;24.15;31.75
63395;BME280;49531;-34.520;150.798;2023-10-13T03:54:32;100524.28;;;24.16;31.93
63395;BME280;49531;-34.520;150.798;2023-10-13T03:57:01;100538.47;;;24.18;32.20
63395;BME280;49531;-34.520;150.798;2023-10-13T03:59:38;100530.28;;;24.18;32.15
63395;BME280;49531;-34.520;150.798;2023-10-13T04:02:06;100517.97;;;24.20;32.16
63395;BME280;49531;-34.520;150.798;2023-10-13T04:04:44;100515.75;;;24.22;31.96
63395;BME280;49531;-34.520;150.798;2023-10-13T04:07:14;100526.38;;;24.24;31.85
63395;BME280;49531;-34.520;150.798;2023-10-13T04:10:01;100526.13;;;24.25;31.79
63395;BME280;49531;-34.520;150.798;2023-10-13T04:12:46;100523.13;;;24.22;31.67
63395;BME280;49531;-34.520;150.798;2023-10-13T04:15:31;100526.38;;;24.29;31.92
63395;BME280;49531;-34.520;150.798;2023-10-13T04:18:09;100517.06;;;24.30;31.66
63395;BME280;49531;-34.520;150.798;2023-10-13T04:21:05;100511.63;;;24.30;31.73
63395;BME280;49531;-34.520;150.798;2023-10-13T04:23:55;100511.09;;;24.28;31.82
63395;BME280;49531;-34.520;150.798;2023-10-13T04:26:40;100507.25;;;24.29;31.87
63395;BME280;49531;-34.520;150.798;2023-10-13T04:29:26;100504.53;;;24.29;31.62
63395;BME280;49531;-34.520;150.798;2023-10-13T04:32:12;100508.88;;;24.30;31.76
63395;BME280;49531;-34.520;150.798;2023-10-13T04:34:53;100510.00;;;24.29;31.77
63395;BME280;49531;-34.520;150.798;2023-10-13T04:37:25;100516.78;;;24.32;31.70
63395;BME280;49531;-34.520;150.798;2023-10-13T04:39:56;100516.25;;;24.30;31.93
63395;BME280;49531;-34.520;150.798;2023-10-13T04:42:36;100510.22;;;24.33;32.08
63395;BME280;49531;-34.520;150.798;2023-10-13T04:45:18;100503.72;;;24.29;31.23
63395;BME280;49531;-34.520;150.798;2023-10-13T04:48:14;100507.06;;;24.20;31.37
63395;BME280;49531;-34.520;150.798;2023-10-13T04:50:59;100498.34;;;24.18;31.68
63395;BME280;49531;-34.520;150.798;2023-10-13T04:53:46;100487.41;;;24.18;31.81
63395;BME280;49531;-34.520;150.798;2023-10-13T04:56:32;100506.44;;;24.29;32.19
63395;BME280;49531;-34.520;150.798;2023-10-13T04:59:08;100515.16;;;24.31;31.97
63395;BME280;49531;-34.520;150.798;2023-10-13T05:01:44;100527.38;;;24.38;32.23
63395;BME280;49531;-34.520;150.798;2023-10-13T05:04:23;100529.56;;;24.36;32.36
63395;BME280;49531;-34.520;150.798;2023-10-13T05:07:25;100519.66;;;24.40;32.33
63395;BME280;49531;-34.520;150.798;2023-10-13T05:10:10;100517.75;;;24.41;32.50
63395;BME280;49531;-34.520;150.798;2023-10-13T05:12:55;100522.91;;;24.42;32.46
63395;BME280;49531;-34.520;150.798;2023-10-13T05:15:49;100525.66;;;24.42;32.13
63395;BME280;49531;-34.520;150.798;2023-10-13T05:18:35;100521.22;;;24.46;32.31
63395;BME280;49531;-34.520;150.798;2023-10-13T05:21:21;100520.41;;;24.46;32.48
63395;BME280;49531;-34.520;150.798;2023-10-13T05:24:07;100523.97;;;24.46;32.33
63395;BME280;49531;-34.520;150.798;2023-10-13T05:26:53;100522.03;;;24.47;32.23
63395;BME280;49531;-34.520;150.798;2023-10-13T05:29:46;100517.41;;;24.47;32.35
63395;BME280;49531;-34.520;150.798;2023-10-13T05:32:36;100535.13;;;24.50;32.57
63395;BME280;49531;-34.520;150.798;2023-10-13T05:35:21;100531.63;;;24.44;32.63
63395;BME280;49531;-34.520;150.798;2023-10-13T05:38:07;100539.47;;;24.51;32.71
63395;BME280;49531;-34.520;150.798;2023-10-13T05:40:59;100546.56;;;24.52;32.52
63395;BME280;49531;-34.520;150.798;2023-10-13T05:43:44;100542.97;;;24.56;32.43
63395;BME280;49531;-34.520;150.798;2023-10-13T05:46:30;100537.16;;;24.63;32.09
63395;BME280;49531;-34.520;150.798;2023-10-13T05:49:05;100533.91;;;24.61;32.08
63395;BME280;49531;-34.520;150.798;2023-10-13T05:51:55;100543.34;;;24.69;31.49
63395;BME280;49531;-34.520;150.798;2023-10-13T05:54:33;100548.31;;;24.67;31.66
63395;BME280;49531;-34.520;150.798;2023-10-13T05:57:18;100542.03;;;24.66;31.60
63395;BME280;49531;-34.520;150.798;2023-10-13T06:00:03;100540.41;;;24.65;31.49
63395;BME280;49531;-34.520;150.798;2023-10-13T06:02:48;100547.72;;;24.70;31.23
63395;BME280;49531;-34.520;150.798;2023-10-13T06:05:33;100550.16;;;24.71;31.66
63395;BME280;49531;-34.520;150.798;2023-10-13T06:08:18;100558.66;;;24.70;31.32
63395;BME280;49531;-34.520;150.798;2023-10-13T06:11:04;100561.66;;;24.68;31.37
63395;BME280;49531;-34.520;150.798;2023-10-13T06:13:49;100560.03;;;24.67;31.25
63395;BME280;49531;-34.520;150.798;2023-10-13T06:16:34;100570.38;;;24.70;31.23
63395;BME280;49531;-34.520;150.798;2023-10-13T06:19:19;100574.22;;;24.69;31.03
63395;BME280;49531;-34.520;150.798;2023-10-13T06:22:04;100581.06;;;24.67;31.19
63395;BME280;49531;-34.520;150.798;2023-10-13T06:24:49;100587.66;;;24.66;31.04
63395;BME280;49531;-34.520;150.798;2023-10-13T06:27:34;100595.84;;;24.66;31.15
63395;BME280;49531;-34.520;150.798;2023-10-13T06:30:18;100592.00;;;24.67;31.01
63395;BME280;49531;-34.520;150.798;2023-10-13T06:32:46;100595.53;;;24.67;31.47
63395;BME280;49531;-34.520;150.798;2023-10-13T06:35:13;100614.91;;;24.71;31.28
63395;BME280;49531;-34.520;150.798;2023-10-13T06:37:50;100616.28;;;24.68;31.19
63395;BME280;49531;-34.520;150.798;2023-10-13T06:40:18;100617.97;;;24.64;31.27
63395;BME280;49531;-34.520;150.798;2023-10-13T06:43:14;100611.41;;;24.65;30.81
63395;BME280;49531;-34.520;150.798;2023-10-13T06:45:44;100627.56;;;24.62;31.06
63395;BME280;49531;-34.520;150.798;2023-10-13T06:48:24;100630.91;;;24.53;31.09
63395;BME280;49531;-34.520;150.798;2023-10-13T06:50:52;100646.50;;;24.53;31.11
63395;BME280;49531;-34.520;150.798;2023-10-13T06:53:19;100629.91;;;24.44;31.08
63395;BME280;49531;-34.520;150.798;2023-10-13T06:55:47;100649.56;;;24.46;31.37
63395;BME280;49531;-34.520;150.798;2023-10-13T06:58:15;100649.03;;;24.44;31.17
63395;BME280;49531;-34.520;150.798;2023-10-13T07:00:44;100652.56;;;24.45;31.59
63395;BME280;49531;-34.520;150.798;2023-10-13T07:03:22;100655.59;;;24.43;31.53
63395;BME280;49531;-34.520;150.798;2023-10-13T07:06:15;100670.53;;;24.51;31.36
63395;BME280;49531;-34.520;150.798;2023-10-13T07:08:47;100657.41;;;24.53;31.14
63395;BME280;49531;-34.520;150.798;2023-10-13T07:11:27;100665.31;;;24.54;31.21
63395;BME280;49531;-34.520;150.798;2023-10-13T07:14:04;100661.25;;;24.52;31.14
63395;BME280;49531;-34.520;150.798;2023-10-13T07:17:01;100669.72;;;24.50;31.27
63395;BME280;49531;-34.520;150.798;2023-10-13T07:19:31;100673.56;;;24.49;31.21
63395;BME280;49531;-34.520;150.798;2023-10-13T07:22:02;100678.50;;;24.47;31.19
63395;BME280;49531;-34.520;150.798;2023-10-13T07:24:46;100681.22;;;24.47;30.97
63395;BME280;49531;-34.520;150.798;2023-10-13T07:27:18;100693.78;;;24.48;31.01
63395;BME280;49531;-34.520;150.798;2023-10-13T07:29:57;100695.81;;;24.38;30.85
63395;BME280;49531;-34.520;150.798;2023-10-13T07:32:50;100696.31;;;24.40;30.85
63395;BME280;49531;-34.520;150.798;2023-10-13T07:35:19;100697.72;;;24.37;30.88
63395;BME280;49531;-34.520;150.798;2023-10-13T07:37:49;100700.53;;;24.22;31.11
63395;BME280;49531;-34.520;150.798;2023-10-13T07:40:18;100707.97;;;24.16;31.40
63395;BME280;49531;-34.520;150.798;2023-10-13T07:42:56;100708.25;;;24.15;31.02
63395;BME280;49531;-34.520;150.798;2023-10-13T07:45:39;100710.94;;;24.20;31.05
63395;BME280;49531;-34.520;150.798;2023-10-13T07:48:09;100710.19;;;24.09;31.19
63395;BME280;49531;-34.520;150.798;2023-10-13T07:50:45;100720.00;;;24.10;31.17
63395;BME280;49531;-34.520;150.798;2023-10-13T07:53:12;100715.75;;;23.99;31.54
63395;BME280;49531;-34.520;150.798;2023-10-13T07:55:49;100726.28;;;24.11;31.16
63395;BME280;49531;-34.520;150.798;2023-10-13T07:58:29;100730.09;;;24.10;30.85
63395;BME280;49531;-34.520;150.798;2023-10-13T08:00:59;100734.25;;;24.02;31.12
63395;BME280;49531;-34.520;150.798;2023-10-13T08:03:36;100738.06;;;24.01;31.29
63395;BME280;49531;-34.520;150.798;2023-10-13T08:06:16;100742.16;;;24.04;31.37
63395;BME280;49531;-34.520;150.798;2023-10-13T08:08:45;100745.22;;;23.97;31.60
63395;BME280;49531;-34.520;150.798;2023-10-13T08:11:17;100751.53;;;23.92;31.60
63395;BME280;49531;-34.520;150.798;2023-10-13T08:13:54;100758.59;;;23.99;31.24
63395;BME280;49531;-34.520;150.798;2023-10-13T08:16:23;100768.97;;;23.97;31.14
63395;BME280;49531;-34.520;150.798;2023-10-13T08:18:55;100774.69;;;23.95;31.37
63395;BME280;49531;-34.520;150.798;2023-10-13T08:21:23;100782.09;;;23.89;31.36
63395;BME280;49531;-34.520;150.798;2023-10-13T08:23:50;100778.31;;;23.80;31.62
63395;BME280;49531;-34.520;150.798;2023-10-13T08:26:24;100779.41;;;23.79;31.57
63395;BME280;49531;-34.520;150.798;2023-10-13T08:29:10;100776.47;;;23.66;31.78
63395;BME280;49531;-34.520;150.798;2023-10-13T08:31:52;100776.00;;;23.58;31.96
63395;BME280;49531;-34.520;150.798;2023-10-13T08:34:31;100774.63;;;23.56;32.06
63395;BME280;49531;-34.520;150.798;2023-10-13T08:37:10;100794.25;;;23.58;32.03
63395;BME280;49531;-34.520;150.798;2023-10-13T08:39:51;100789.91;;;23.52;32.13
63395;BME280;49531;-34.520;150.798;2023-10-13T08:42:38;100795.09;;;23.43;31.96
63395;BME280;49531;-34.520;150.798;2023-10-13T08:45:12;100809.81;;;23.42;32.26
63395;BME280;49531;-34.520;150.798;2023-10-13T08:47:58;100806.88;;;23.23;32.37
63395;BME280;49531;-34.520;150.798;2023-10-13T08:50:51;100800.31;;;23.24;32.63
63395;BME280;49531;-34.520;150.798;2023-10-13T08:55:59;100822.91;;;23.40;32.37
63395;BME280;49531;-34.520;150.798;2023-10-13T08:58:33;100825.38;;;23.42;32.22
63395;BME280;49531;-34.520;150.798;2023-10-13T09:01:38;100826.97;;;23.48;32.11
63395;BME280;49531;-34.520;150.798;2023-10-13T09:04:19;100833.25;;;23.48;32.22
63395;BME280;49531;-34.520;150.798;2023-10-13T09:09:46;100834.63;;;23.56;32.33
63395;BME280;49531;-34.520;150.798;2023-10-13T09:12:17;100839.53;;;23.59;32.31
63395;BME280;49531;-34.520;150.798;2023-10-13T09:14:54;100834.59;;;23.61;32.38
63395;BME280;49531;-34.520;150.798;2023-10-13T09:17:29;100847.66;;;23.64;31.94
63395;BME280;49531;-34.520;150.798;2023-10-13T09:20:02;100850.94;;;23.61;32.03
63395;BME280;49531;-34.520;150.798;2023-10-13T09:22:54;100848.22;;;23.61;32.10
63395;BME280;49531;-34.520;150.798;2023-10-13T09:25:31;100845.53;;;23.56;32.06
63395;BME280;49531;-34.520;150.798;2023-10-13T09:28:03;100840.09;;;23.56;32.04
63395;BME280;49531;-34.520;150.798;2023-10-13T09:30:50;100846.09;;;23.53;32.19
63395;BME280;49531;-34.520;150.798;2023-10-13T09:33:31;100847.41;;;23.60;31.84
63395;BME280;49531;-34.520;150.798;2023-10-13T09:36:16;100852.09;;;23.55;32.09
63395;BME280;49531;-34.520;150.798;2023-10-13T09:38:43;100854.81;;;23.55;32.36
63395;BME280;49531;-34.520;150.798;2023-10-13T09:41:40;100846.91;;;23.53;32.26
63395;BME280;49531;-34.520;150.798;2023-10-13T09:44:16;100849.63;;;23.53;32.25
63395;BME280;49531;-34.520;150.798;2023-10-13T09:46:44;100858.88;;;23.52;32.05
63395;BME280;49531;-34.520;150.798;2023-10-13T09:49:14;100849.59;;;23.48;32.27
63395;BME280;49531;-34.520;150.798;2023-10-13T09:51:49;100853.16;;;23.49;32.29
63395;BME280;49531;-34.520;150.798;2023-10-13T09:54:38;100852.34;;;23.43;32.30
63395;BME280;49531;-34.520;150.798;2023-10-13T09:57:19;100850.97;;;23.46;32.26
63395;BME280;49531;-34.520;150.798;2023-10-13T10:00:00;100864.34;;;23.42;32.24
63395;BME280;49531;-34.520;150.798;2023-10-13T10:02:54;100853.44;;;23.37;32.32
63395;BME280;49531;-34.520;150.798;2023-10-13T10:05:27;100864.91;;;23.39;32.59
63395;BME280;49531;-34.520;150.798;2023-10-13T10:08:00;100867.63;;;23.39;32.60
63395;BME280;49531;-34.520;150.798;2023-10-13T10:10:52;100860.53;;;23.38;32.72
63395;BME280;49531;-34.520;150.798;2023-10-13T10:14:01;100861.09;;;23.35;32.46
63395;BME280;49531;-34.520;150.798;2023-10-13T10:17:04;100852.09;;;23.29;32.67
63395;BME280;49531;-34.520;150.798;2023-10-13T10:19:52;100854.00;;;23.34;32.60
63395;BME280;49531;-34.520;150.798;2023-10-13T10:22:30;100851.81;;;23.31;32.53
63395;BME280;49531;-34.520;150.798;2023-10-13T10:25:06;100859.44;;;23.34;32.75
63395;BME280;49531;-34.520;150.798;2023-10-13T10:27:57;100849.66;;;23.28;32.64
63395;BME280;49531;-34.520;150.798;2023-10-13T10:30:27;100864.09;;;23.28;32.88
63395;BME280;49531;-34.520;150.798;2023-10-13T10:32:58;100851.00;;;23.25;32.80
63395;BME280;49531;-34.520;150.798;2023-10-13T10:35:57;100860.53;;;23.28;32.72
63395;BME280;49531;-34.520;150.798;2023-10-13T10:38:25;100860.81;;;23.26;32.91
63395;BME280;49531;-34.520;150.798;2023-10-13T10:43:30;100855.91;;;23.23;32.82
63395;BME280;49531;-34.520;150.798;2023-10-13T10:46:27;100866.81;;;23.23;33.06
63395;BME280;49531;-34.520;150.798;2023-10-13T10:48:58;100854.06;;;23.19;33.09
63395;BME280;49531;-34.520;150.798;2023-10-13T10:51:28;100864.13;;;23.18;33.02
63395;BME280;49531;-34.520;150.798;2023-10-13T10:53:59;100840.69;;;23.12;33.03
63395;BME280;49531;-34.520;150.798;2023-10-13T10:56:47;100855.41;;;23.06;33.08
63395;BME280;49531;-34.520;150.798;2023-10-13T10:59:23;100846.44;;;23.01;33.02
63395;BME280;49531;-34.520;150.798;2023-10-13T11:01:51;100857.06;;;23.02;33.24
63395;BME280;49531;-34.520;150.798;2023-10-13T11:04:19;100857.59;;;22.99;33.27
63395;BME280;49531;-34.520;150.798;2023-10-13T11:06:53;100849.69;;;22.98;33.29
63395;BME280;49531;-34.520;150.798;2023-10-13T11:09:31;100849.44;;;22.94;33.35
63395;BME280;49531;-34.520;150.798;2023-10-13T11:12:13;100853.78;;;22.90;33.31
63395;BME280;49531;-34.520;150.798;2023-10-13T11:15:03;100851.59;;;22.87;33.48
63395;BME280;49531;-34.520;150.798;2023-10-13T11:17:52;100843.44;;;22.77;33.38
63395;BME280;49531;-34.520;150.798;2023-10-13T11:20:24;100854.06;;;22.83;33.70
63395;BME280;49531;-34.520;150.798;2023-10-13T11:23:00;100846.72;;;22.79;33.57
63395;BME280;49531;-34.520;150.798;2023-10-13T11:25:32;100844.53;;;22.76;33.60
63395;BME280;49531;-34.520;150.798;2023-10-13T11:28:15;100839.06;;;22.71;33.70
63395;BME280;49531;-34.520;150.798;2023-10-13T11:30:58;100836.63;;;22.74;33.68
63395;BME280;49531;-34.520;150.798;2023-10-13T11:33:42;100830.09;;;22.70;33.63
63395;BME280;49531;-34.520;150.798;2023-10-13T11:36:12;100827.63;;;22.63;33.67
63395;BME280;49531;-34.520;150.798;2023-10-13T11:38:59;100833.88;;;22.64;33.82
63395;BME280;49531;-34.520;150.798;2023-10-13T11:41:26;100833.06;;;22.63;34.00
63395;BME280;49531;-34.520;150.798;2023-10-13T11:44:11;100811.84;;;22.60;33.74
63395;BME280;49531;-34.520;150.798;2023-10-13T11:46:44;100827.34;;;22.60;33.67
63395;BME280;49531;-34.520;150.798;2023-10-13T11:49:14;100825.72;;;22.59;33.78
63395;BME280;49531;-34.520;150.798;2023-10-13T11:51:54;100829.78;;;22.56;33.69
63395;BME280;49531;-34.520;150.798;2023-10-13T11:54:28;100825.97;;;22.52;33.74
63395;BME280;49531;-34.520;150.798;2023-10-13T11:56:55;100830.88;;;22.50;33.66
63395;BME280;49531;-34.520;150.798;2023-10-13T11:59:24;100822.72;;;22.50;33.87
63395;BME280;49531;-34.520;150.798;2023-10-13T12:01:53;100835.22;;;22.51;33.81
63395;BME280;49531;-34.520;150.798;2023-10-13T12:04:39;100831.16;;;22.49;33.80
63395;BME280;49531;-34.520;150.798;2023-10-13T12:07:12;100823.25;;;22.42;33.82
63395;BME280;49531;-34.520;150.798;2023-10-13T12:09:45;100824.59;;;22.40;33.96
63395;BME280;49531;-34.520;150.798;2023-10-13T12:12:26;100826.53;;;22.39;33.90
63395;BME280;49531;-34.520;150.798;2023-10-13T12:14:54;100831.69;;;22.41;33.98
63395;BME280;49531;-34.520;150.798;2023-10-13T12:17:23;100825.69;;;22.34;33.97
63395;BME280;49531;-34.520;150.798;2023-10-13T12:20:06;100838.78;;;22.37;34.04
63395;BME280;49531;-34.520;150.798;2023-10-13T12:22:38;100833.59;;;22.35;34.17
63395;BME280;49531;-34.520;150.798;2023-10-13T12:25:10;100828.16;;;22.35;34.18
63395;BME280;49531;-34.520;150.798;2023-10-13T12:28:10;100833.06;;;22.33;34.06
63395;BME280;49531;-34.520;150.798;2023-10-13T12:30:49;100840.41;;;22.33;34.07
63395;BME280;49531;-34.520;150.798;2023-10-13T12:33:22;100836.31;;;22.35;34.12
63395;BME280;49531;-34.520;150.798;2023-10-13T12:36:03;100841.75;;;22.30;34.09
63395;BME280;49531;-34.520;150.798;2023-10-13T12:38:41;100848.28;;;22.29;34.24
63395;BME280;49531;-34.520;150.798;2023-10-13T12:41:27;100850.72;;;22.31;34.23
63395;BME280;49531;-34.520;150.798;2023-10-13T12:44:12;100854.53;;;22.24;34.17
63395;BME280;49531;-34.520;150.798;2023-10-13T12:46:57;100856.97;;;22.26;34.13
63395;BME280;49531;-34.520;150.798;2023-10-13T12:49:43;100845.25;;;22.20;34.27
63395;BME280;49531;-34.520;150.798;2023-10-13T12:52:18;100849.88;;;22.20;34.25
63395;BME280;49531;-34.520;150.798;2023-10-13T12:55:00;100844.19;;;22.21;34.29
63395;BME280;49531;-34.520;150.798;2023-10-13T12:57:36;100850.44;;;22.22;34.07
63395;BME280;49531;-34.520;150.798;2023-10-13T13:00:11;100848.25;;;22.19;34.33
63395;BME280;49531;-34.520;150.798;2023-10-13T13:02:49;100843.34;;;22.16;34.38
63395;BME280;49531;-34.520;150.798;2023-10-13T13:05:21;100837.63;;;22.12;34.31
63395;BME280;49531;-34.520;150.798;2023-10-13T13:07:54;100838.97;;;22.10;34.36
63395;BME280;49531;-34.520;150.798;2023-10-13T13:10:22;100835.69;;;22.08;34.42
63395;BME280;49531;-34.520;150.798;2023-10-13T13:13:02;100840.31;;;22.07;34.44
63395;BME280;49531;-34.520;150.798;2023-10-13T13:15:30;100834.03;;;22.02;34.53
63395;BME280;49531;-34.520;150.798;2023-10-13T13:17:57;100842.50;;;22.05;34.37
63395;BME280;49531;-34.520;150.798;2023-10-13T13:20:36;100843.84;;;22.03;34.39
63395;BME280;49531;-34.520;150.798;2023-10-13T13:23:05;100840.03;;;21.99;34.45